WXM80 ListenWXM80 Stop

You find our weather info also at:

UK Metoffice

WeatherCloud

Weather Underground

Northeastern Weather Network

AWEKAS

Citizen Weather Observer Program (CWOP)

HAMweather, WeatherForYou, PWS Weather


Weather Underground History page Text

Daily Summary for June 28, 2017 Units:  Both    English   Metric
« Previous Day
Next Day »
Daily Weekly Monthly Yearly Custom
  High: Low: Average:
Temperature: 84.3 °F /  29.1 °C 58.7 °F /  14.8 °C 70.6 °F /  21.4 °C
Dew Point: 62.9 °F /  17.2 °C 52.7 °F /  11.5 °C 56.9 °F /  13.8 °C
Humidity: 93 % 37 % 65 %
Wind Speed: 7.3 mph /  11.7 km/h - 1.7 mph /  2.7 km/h
Wind Gust: 13.0 mph /  20.9 km/h - -
Wind:- - WSW
Pressure: 30.08 in /  1018.5 hPa 29.97 in /  1014.8 hPa -
Precipitation: 0.00 in /  0 mm    
Historical Graphs
 
 
Tabular Data for June 28, 2017
Time Temperature Dew Point Pressure Wind Wind Speed Wind Gust Humidity Rainfall Rate (Hourly)
00:01 62.3 °F /  16.8 °C 57.4 °F /  14.1 °C 29.97 in /  1014.8 hPa Calm     84 % 0.00 in /  0 mm
00:06 62.1 °F /  16.7 °C 57.2 °F /  14 °C 29.97 in /  1014.8 hPa Calm     84 % 0.00 in /  0 mm
00:11 62.0 °F /  16.7 °C 57.1 °F /  13.9 °C 29.97 in /  1014.8 hPa Calm     84 % 0.00 in /  0 mm
00:16 61.8 °F /  16.6 °C 56.9 °F /  13.8 °C 29.97 in /  1014.8 hPa Calm     84 % 0.00 in /  0 mm
00:21 61.6 °F /  16.4 °C 57.0 °F /  13.9 °C 29.97 in /  1014.8 hPa Calm     85 % 0.00 in /  0 mm
00:26 61.4 °F /  16.3 °C 56.8 °F /  13.8 °C 29.97 in /  1014.8 hPa Calm     85 % 0.00 in /  0 mm
00:31 61.3 °F /  16.3 °C 57.1 °F /  13.9 °C 29.97 in /  1014.8 hPa Calm     86 % 0.00 in /  0 mm
00:36 61.1 °F /  16.2 °C 56.9 °F /  13.8 °C 29.97 in /  1014.8 hPa Calm     86 % 0.00 in /  0 mm
00:41 61.0 °F /  16.1 °C 56.8 °F /  13.8 °C 29.97 in /  1014.8 hPa Calm     86 % 0.00 in /  0 mm
00:46 60.9 °F /  16.1 °C 56.7 °F /  13.7 °C 29.97 in /  1014.8 hPa Calm     86 % 0.00 in /  0 mm
00:51 60.8 °F /  16 °C 56.6 °F /  13.7 °C 29.97 in /  1014.8 hPa Calm     86 % 0.00 in /  0 mm
00:56 60.7 °F /  15.9 °C 56.5 °F /  13.6 °C 29.97 in /  1014.8 hPa Calm     86 % 0.00 in /  0 mm
01:01 60.6 °F /  15.9 °C 56.7 °F /  13.7 °C 29.97 in /  1014.8 hPa Calm     87 % 0.00 in /  0 mm
01:06 60.5 °F /  15.8 °C 56.6 °F /  13.7 °C 29.98 in /  1015.1 hPa Calm     87 % 0.00 in /  0 mm
01:11 60.4 °F /  15.8 °C 56.5 °F /  13.6 °C 29.97 in /  1014.8 hPa Calm     87 % 0.00 in /  0 mm
01:16 60.3 °F /  15.7 °C 56.4 °F /  13.6 °C 29.97 in /  1014.8 hPa Calm     87 % 0.00 in /  0 mm
01:21 60.2 °F /  15.7 °C 56.3 °F /  13.5 °C 29.97 in /  1014.8 hPa Calm     87 % 0.00 in /  0 mm
01:26 60.0 °F /  15.6 °C 56.1 °F /  13.4 °C 29.97 in /  1014.8 hPa Calm     87 % 0.00 in /  0 mm
01:31 59.9 °F /  15.5 °C 56.0 °F /  13.3 °C 29.97 in /  1014.8 hPa Calm     87 % 0.00 in /  0 mm
01:36 59.8 °F /  15.4 °C 55.9 °F /  13.3 °C 29.97 in /  1014.8 hPa Calm     87 % 0.00 in /  0 mm
01:41 59.6 °F /  15.3 °C 55.7 °F /  13.2 °C 29.97 in /  1014.8 hPa Calm     87 % 0.00 in /  0 mm
01:46 59.5 °F /  15.3 °C 55.6 °F /  13.1 °C 29.98 in /  1015.1 hPa Calm     87 % 0.00 in /  0 mm
01:51 59.4 °F /  15.2 °C 55.8 °F /  13.2 °C 29.98 in /  1015.1 hPa Calm     88 % 0.00 in /  0 mm
01:56 59.2 °F /  15.1 °C 55.3 °F /  12.9 °C 29.98 in /  1015.1 hPa Calm     87 % 0.00 in /  0 mm
02:01 59.1 °F /  15.1 °C 55.5 °F /  13.1 °C 29.97 in /  1014.8 hPa Calm     88 % 0.00 in /  0 mm
02:06 59.0 °F /  15 °C 55.1 °F /  12.8 °C 29.98 in /  1015.1 hPa Calm     87 % 0.00 in /  0 mm
02:11 58.9 °F /  14.9 °C 55.4 °F /  13 °C 29.98 in /  1015.1 hPa Calm     88 % 0.00 in /  0 mm
02:16 58.9 °F /  14.9 °C 55.7 °F /  13.2 °C 29.98 in /  1015.1 hPa Calm     89 % 0.00 in /  0 mm
02:21 58.8 °F /  14.9 °C 55.6 °F /  13.1 °C 29.98 in /  1015.1 hPa Calm     89 % 0.00 in /  0 mm
02:22 58.8 °F /  14.9 °C 55.6 °F /  13.1 °C 29.98 in /  1015.1 hPa Calm     89 % 0.00 in /  0 mm
02:27 58.8 °F /  14.9 °C 55.6 °F /  13.1 °C 29.99 in /  1015.5 hPa Calm     89 % 0.00 in /  0 mm
02:32 58.7 °F /  14.8 °C 55.8 °F /  13.2 °C 29.99 in /  1015.5 hPa Calm     90 % 0.00 in /  0 mm
02:37 58.7 °F /  14.8 °C 55.8 °F /  13.2 °C 29.99 in /  1015.5 hPa Calm     90 % 0.00 in /  0 mm
02:42 58.8 °F /  14.9 °C 56.2 °F /  13.4 °C 29.99 in /  1015.5 hPa Calm     91 % 0.00 in /  0 mm
02:47 58.8 °F /  14.9 °C 56.5 °F /  13.6 °C 29.99 in /  1015.5 hPa SW 0.2 mph /  0.3 km/h 1.2 mph /  1.9 km/h 92 % 0.00 in /  0 mm
02:52 58.9 °F /  14.9 °C 56.6 °F /  13.7 °C 29.99 in /  1015.5 hPa SW 0.8 mph /  1.3 km/h 2.3 mph /  3.7 km/h 92 % 0.00 in /  0 mm
02:57 59.0 °F /  15 °C 56.7 °F /  13.7 °C 29.99 in /  1015.5 hPa SW 0.3 mph /  0.5 km/h 1.2 mph /  1.9 km/h 92 % 0.00 in /  0 mm
03:02 59.1 °F /  15.1 °C 57.1 °F /  13.9 °C 29.99 in /  1015.5 hPa SW 0.8 mph /  1.3 km/h 2.3 mph /  3.7 km/h 93 % 0.00 in /  0 mm
03:07 59.2 °F /  15.1 °C 57.2 °F /  14 °C 29.99 in /  1015.5 hPa SW 0.4 mph /  0.6 km/h 2.0 mph /  3.2 km/h 93 % 0.00 in /  0 mm
03:12 59.3 °F /  15.2 °C 57.3 °F /  14.1 °C 29.99 in /  1015.5 hPa SW 0.2 mph /  0.3 km/h 1.2 mph /  1.9 km/h 93 % 0.00 in /  0 mm
03:17 59.3 °F /  15.2 °C 57.3 °F /  14.1 °C 29.99 in /  1015.5 hPa WSW 2.5 mph /  4 km/h 3.5 mph /  5.6 km/h 93 % 0.00 in /  0 mm
03:22 59.3 °F /  15.2 °C 57.3 °F /  14.1 °C 29.99 in /  1015.5 hPa WSW 0.1 mph /  0.2 km/h 3.5 mph /  5.6 km/h 93 % 0.00 in /  0 mm
03:27 59.3 °F /  15.2 °C 57.3 °F /  14.1 °C 29.99 in /  1015.5 hPa WSW 1.2 mph /  1.9 km/h 2.0 mph /  3.2 km/h 93 % 0.00 in /  0 mm
03:32 59.3 °F /  15.2 °C 57.3 °F /  14.1 °C 30.00 in /  1015.8 hPa West 0.8 mph /  1.3 km/h 3.5 mph /  5.6 km/h 93 % 0.00 in /  0 mm
03:37 59.2 °F /  15.1 °C 56.9 °F /  13.8 °C 30.00 in /  1015.8 hPa West 1.8 mph /  2.9 km/h 3.5 mph /  5.6 km/h 92 % 0.00 in /  0 mm
03:43 59.2 °F /  15.1 °C 56.6 °F /  13.7 °C 30.00 in /  1015.8 hPa West 2.3 mph /  3.7 km/h 4.6 mph /  7.4 km/h 91 % 0.00 in /  0 mm
03:48 59.1 °F /  15.1 °C 56.2 °F /  13.4 °C 30.00 in /  1015.8 hPa NW 0.9 mph /  1.4 km/h 3.5 mph /  5.6 km/h 90 % 0.00 in /  0 mm
03:53 59.1 °F /  15.1 °C 55.9 °F /  13.3 °C 30.00 in /  1015.8 hPa WSW 0.2 mph /  0.3 km/h 2.3 mph /  3.7 km/h 89 % 0.00 in /  0 mm
03:58 59.2 °F /  15.1 °C 55.6 °F /  13.1 °C 30.00 in /  1015.8 hPa West 0.9 mph /  1.4 km/h 3.5 mph /  5.6 km/h 88 % 0.00 in /  0 mm
04:03 59.3 °F /  15.2 °C 55.1 °F /  12.8 °C 30.00 in /  1015.8 hPa SW 1.9 mph /  3.1 km/h 3.5 mph /  5.6 km/h 86 % 0.00 in /  0 mm
04:08 59.5 °F /  15.3 °C 55.3 °F /  12.9 °C 30.00 in /  1015.8 hPa West 3.0 mph /  4.8 km/h 6.9 mph /  11.1 km/h 86 % 0.00 in /  0 mm
04:10 59.5 °F /  15.3 °C 55.0 °F /  12.8 °C 30.01 in /  1016.1 hPa West 1.5 mph /  2.4 km/h 3.5 mph /  5.6 km/h 85 % 0.00 in /  0 mm
04:15 59.7 °F /  15.4 °C 55.2 °F /  12.9 °C 30.01 in /  1016.1 hPa SW 0.2 mph /  0.3 km/h 1.2 mph /  1.9 km/h 85 % 0.00 in /  0 mm
04:20 59.9 °F /  15.5 °C 55.4 °F /  13 °C 30.01 in /  1016.1 hPa West 1.1 mph /  1.8 km/h 3.5 mph /  5.6 km/h 85 % 0.00 in /  0 mm
04:25 60.0 °F /  15.6 °C 55.2 °F /  12.9 °C 30.01 in /  1016.1 hPa West 1.3 mph /  2.1 km/h 3.5 mph /  5.6 km/h 84 % 0.00 in /  0 mm
04:30 60.2 °F /  15.7 °C 55.0 °F /  12.8 °C 30.01 in /  1016.1 hPa WNW 2.0 mph /  3.2 km/h 4.0 mph /  6.4 km/h 83 % 0.00 in /  0 mm
04:36 60.4 °F /  15.8 °C 54.9 °F /  12.7 °C 30.01 in /  1016.1 hPa West 4.6 mph /  7.4 km/h 6.9 mph /  11.1 km/h 82 % 0.00 in /  0 mm
04:41 60.5 °F /  15.8 °C 55.0 °F /  12.8 °C 30.01 in /  1016.1 hPa West 2.0 mph /  3.2 km/h 5.0 mph /  8 km/h 82 % 0.00 in /  0 mm
04:46 60.6 °F /  15.9 °C 55.1 °F /  12.8 °C 30.01 in /  1016.1 hPa West 1.0 mph /  1.6 km/h 5.0 mph /  8 km/h 82 % 0.00 in /  0 mm
04:51 60.7 °F /  15.9 °C 55.2 °F /  12.9 °C 30.01 in /  1016.1 hPa West 1.0 mph /  1.6 km/h 5.0 mph /  8 km/h 82 % 0.00 in /  0 mm
04:56 60.7 °F /  15.9 °C 54.8 °F /  12.7 °C 30.02 in /  1016.5 hPa West 2.4 mph /  3.9 km/h 7.0 mph /  11.3 km/h 81 % 0.00 in /  0 mm
04:59 60.7 °F /  15.9 °C 54.8 °F /  12.7 °C 30.01 in /  1016.1 hPa West 1.2 mph /  1.9 km/h 6.9 mph /  11.1 km/h 81 % 0.00 in /  0 mm
05:04 60.7 °F /  15.9 °C 54.8 °F /  12.7 °C 30.01 in /  1016.1 hPa West 1.5 mph /  2.4 km/h 3.5 mph /  5.6 km/h 81 % 0.00 in /  0 mm
05:09 60.7 °F /  15.9 °C 54.8 °F /  12.7 °C 30.02 in /  1016.5 hPa WNW 1.2 mph /  1.9 km/h 3.5 mph /  5.6 km/h 81 % 0.00 in /  0 mm
05:14 60.7 °F /  15.9 °C 54.8 °F /  12.7 °C 30.02 in /  1016.5 hPa WSW 3.5 mph /  5.6 km/h 5.0 mph /  8 km/h 81 % 0.00 in /  0 mm
05:19 60.6 °F /  15.9 °C 54.7 °F /  12.6 °C 30.02 in /  1016.5 hPa West 2.7 mph /  4.3 km/h 3.5 mph /  5.6 km/h 81 % 0.00 in /  0 mm
05:24 60.6 °F /  15.9 °C 54.7 °F /  12.6 °C 30.02 in /  1016.5 hPa WSW 1.5 mph /  2.4 km/h 3.5 mph /  5.6 km/h 81 % 0.00 in /  0 mm
05:29 60.6 °F /  15.9 °C 54.7 °F /  12.6 °C 30.02 in /  1016.5 hPa WNW 0.5 mph /  0.8 km/h 2.3 mph /  3.7 km/h 81 % 0.00 in /  0 mm
05:34 60.6 °F /  15.9 °C 54.7 °F /  12.6 °C 30.02 in /  1016.5 hPa West 1.5 mph /  2.4 km/h 3.5 mph /  5.6 km/h 81 % 0.00 in /  0 mm
05:39 60.5 °F /  15.8 °C 54.6 °F /  12.6 °C 30.02 in /  1016.5 hPa WSW 0.6 mph /  1 km/h 3.5 mph /  5.6 km/h 81 % 0.00 in /  0 mm
05:45 60.5 °F /  15.8 °C 55.0 °F /  12.8 °C 30.02 in /  1016.5 hPa WNW 0.8 mph /  1.3 km/h 4.0 mph /  6.4 km/h 82 % 0.00 in /  0 mm
05:50 60.5 °F /  15.8 °C 55.0 °F /  12.8 °C 30.02 in /  1016.5 hPa WSW 1.9 mph /  3.1 km/h 3.5 mph /  5.6 km/h 82 % 0.00 in /  0 mm
05:55 60.5 °F /  15.8 °C 55.0 °F /  12.8 °C 30.03 in /  1016.8 hPa West 2.2 mph /  3.5 km/h 3.0 mph /  4.8 km/h 82 % 0.00 in /  0 mm
06:00 60.4 °F /  15.8 °C 54.9 °F /  12.7 °C 30.03 in /  1016.8 hPa WNW 0.1 mph /  0.2 km/h 2.3 mph /  3.7 km/h 82 % 0.00 in /  0 mm
06:05 60.4 °F /  15.8 °C 54.9 °F /  12.7 °C 30.03 in /  1016.8 hPa WNW 1.1 mph /  1.8 km/h 7.0 mph /  11.3 km/h 82 % 0.00 in /  0 mm
06:10 60.4 °F /  15.8 °C 55.2 °F /  12.9 °C 30.03 in /  1016.8 hPa WSW 2.0 mph /  3.2 km/h 3.5 mph /  5.6 km/h 83 % 0.00 in /  0 mm
06:15 60.5 °F /  15.8 °C 55.3 °F /  12.9 °C 30.03 in /  1016.8 hPa NW 1.5 mph /  2.4 km/h 4.0 mph /  6.4 km/h 83 % 0.00 in /  0 mm
06:20 60.6 °F /  15.9 °C 55.4 °F /  13 °C 30.03 in /  1016.8 hPa SW 0.6 mph /  1 km/h 3.5 mph /  5.6 km/h 83 % 0.00 in /  0 mm
06:25 60.7 °F /  15.9 °C 55.5 °F /  13.1 °C 30.03 in /  1016.8 hPa WNW 0.8 mph /  1.3 km/h 5.0 mph /  8 km/h 83 % 0.00 in /  0 mm
06:30 60.8 °F /  16 °C 55.6 °F /  13.1 °C 30.03 in /  1016.8 hPa WNW 1.3 mph /  2.1 km/h 5.0 mph /  8 km/h 83 % 0.00 in /  0 mm
06:35 61.0 °F /  16.1 °C 55.8 °F /  13.2 °C 30.03 in /  1016.8 hPa NW 2.8 mph /  4.5 km/h 5.8 mph /  9.3 km/h 83 % 0.00 in /  0 mm
06:40 61.2 °F /  16.2 °C 56.0 °F /  13.3 °C 30.03 in /  1016.8 hPa WNW 3.3 mph /  5.3 km/h 5.8 mph /  9.3 km/h 83 % 0.00 in /  0 mm
06:45 61.4 °F /  16.3 °C 56.2 °F /  13.4 °C 30.03 in /  1016.8 hPa SW 2.3 mph /  3.7 km/h 5.8 mph /  9.3 km/h 83 % 0.00 in /  0 mm
06:51 61.7 °F /  16.5 °C 56.5 °F /  13.6 °C 30.04 in /  1017.2 hPa WNW 1.0 mph /  1.6 km/h 5.0 mph /  8 km/h 83 % 0.00 in /  0 mm
06:56 62.1 °F /  16.7 °C 56.5 °F /  13.6 °C 30.04 in /  1017.2 hPa WNW 1.0 mph /  1.6 km/h 7.0 mph /  11.3 km/h 82 % 0.00 in /  0 mm
07:01 62.5 °F /  16.9 °C 56.6 °F /  13.7 °C 30.04 in /  1017.2 hPa WNW 1.1 mph /  1.8 km/h 9.2 mph /  14.8 km/h 81 % 0.00 in /  0 mm
07:06 62.9 °F /  17.2 °C 57.0 °F /  13.9 °C 30.04 in /  1017.2 hPa NW 2.0 mph /  3.2 km/h 5.8 mph /  9.3 km/h 81 % 0.00 in /  0 mm
07:11 63.3 °F /  17.4 °C 56.7 °F /  13.7 °C 30.04 in /  1017.2 hPa NW 2.2 mph /  3.5 km/h 8.1 mph /  13 km/h 79 % 0.00 in /  0 mm
07:16 63.6 °F /  17.6 °C 57.3 °F /  14.1 °C 30.04 in /  1017.2 hPa WNW 3.6 mph /  5.8 km/h 9.2 mph /  14.8 km/h 80 % 0.00 in /  0 mm
07:21 63.9 °F /  17.7 °C 57.3 °F /  14.1 °C 30.05 in /  1017.5 hPa WNW 1.5 mph /  2.4 km/h 5.8 mph /  9.3 km/h 79 % 0.00 in /  0 mm
07:26 64.3 °F /  17.9 °C 57.6 °F /  14.2 °C 30.05 in /  1017.5 hPa WNW 2.3 mph /  3.7 km/h 4.6 mph /  7.4 km/h 79 % 0.00 in /  0 mm
07:31 64.5 °F /  18.1 °C 57.8 °F /  14.3 °C 30.05 in /  1017.5 hPa NW 0.8 mph /  1.3 km/h 3.5 mph /  5.6 km/h 79 % 0.00 in /  0 mm
07:36 64.7 °F /  18.2 °C 57.3 °F /  14.1 °C 30.05 in /  1017.5 hPa WNW 2.8 mph /  4.5 km/h 5.8 mph /  9.3 km/h 77 % 0.00 in /  0 mm
07:41 64.9 °F /  18.3 °C 57.9 °F /  14.4 °C 30.05 in /  1017.5 hPa WNW 1.3 mph /  2.1 km/h 3.5 mph /  5.6 km/h 78 % 0.00 in /  0 mm
07:46 64.9 °F /  18.3 °C 57.5 °F /  14.2 °C 30.06 in /  1017.8 hPa NW 1.9 mph /  3.1 km/h 3.5 mph /  5.6 km/h 77 % 0.00 in /  0 mm
07:51 64.8 °F /  18.2 °C 57.1 °F /  13.9 °C 30.05 in /  1017.5 hPa NW 1.2 mph /  1.9 km/h 6.9 mph /  11.1 km/h 76 % 0.00 in /  0 mm
07:56 64.8 °F /  18.2 °C 57.1 °F /  13.9 °C 30.06 in /  1017.8 hPa West 0.9 mph /  1.4 km/h 6.0 mph /  9.7 km/h 76 % 0.00 in /  0 mm
08:01 64.7 °F /  18.2 °C 57.0 °F /  13.9 °C 30.06 in /  1017.8 hPa West 0.6 mph /  1 km/h 3.5 mph /  5.6 km/h 76 % 0.00 in /  0 mm
08:02 64.7 °F /  18.2 °C 57.0 °F /  13.9 °C 30.06 in /  1017.8 hPa North 0.7 mph /  1.1 km/h 4.0 mph /  6.4 km/h 76 % 0.00 in /  0 mm
08:07 64.6 °F /  18.1 °C 57.2 °F /  14 °C 30.06 in /  1017.8 hPa NNE 0.9 mph /  1.4 km/h 4.6 mph /  7.4 km/h 77 % 0.00 in /  0 mm
08:12 64.5 °F /  18.1 °C 56.8 °F /  13.8 °C 30.06 in /  1017.8 hPa West 2.6 mph /  4.2 km/h 6.9 mph /  11.1 km/h 76 % 0.00 in /  0 mm
08:17 64.5 °F /  18.1 °C 57.1 °F /  13.9 °C 30.06 in /  1017.8 hPa West 2.3 mph /  3.7 km/h 6.9 mph /  11.1 km/h 77 % 0.00 in /  0 mm
08:22 64.5 °F /  18.1 °C 57.1 °F /  13.9 °C 30.06 in /  1017.8 hPa WNW 1.3 mph /  2.1 km/h 4.0 mph /  6.4 km/h 77 % 0.00 in /  0 mm
08:27 64.4 °F /  18 °C 57.0 °F /  13.9 °C 30.07 in /  1018.2 hPa WNW 1.3 mph /  2.1 km/h 3.5 mph /  5.6 km/h 77 % 0.00 in /  0 mm
08:32 64.4 °F /  18 °C 57.0 °F /  13.9 °C 30.07 in /  1018.2 hPa WNW 3.5 mph /  5.6 km/h 4.6 mph /  7.4 km/h 77 % 0.00 in /  0 mm
08:37 64.5 °F /  18.1 °C 57.1 °F /  13.9 °C 30.07 in /  1018.2 hPa NW 4.2 mph /  6.8 km/h 6.0 mph /  9.7 km/h 77 % 0.00 in /  0 mm
08:42 64.6 °F /  18.1 °C 57.2 °F /  14 °C 30.07 in /  1018.2 hPa West 3.8 mph /  6.1 km/h 5.8 mph /  9.3 km/h 77 % 0.00 in /  0 mm
08:47 64.7 °F /  18.2 °C 57.0 °F /  13.9 °C 30.07 in /  1018.2 hPa West 2.3 mph /  3.7 km/h 4.6 mph /  7.4 km/h 76 % 0.00 in /  0 mm
08:52 64.8 °F /  18.2 °C 57.4 °F /  14.1 °C 30.07 in /  1018.2 hPa West 2.6 mph /  4.2 km/h 3.5 mph /  5.6 km/h 77 % 0.00 in /  0 mm
08:57 65.0 °F /  18.3 °C 57.6 °F /  14.2 °C 30.07 in /  1018.2 hPa WNW 0.6 mph /  1 km/h 2.3 mph /  3.7 km/h 77 % 0.00 in /  0 mm
09:02 65.0 °F /  18.3 °C 57.2 °F /  14 °C 30.07 in /  1018.2 hPa WNW 2.8 mph /  4.5 km/h 5.0 mph /  8 km/h 76 % 0.00 in /  0 mm
09:07 65.1 °F /  18.4 °C 57.0 °F /  13.9 °C 30.07 in /  1018.2 hPa West 1.7 mph /  2.7 km/h 4.6 mph /  7.4 km/h 75 % 0.00 in /  0 mm
09:12 65.2 °F /  18.4 °C 57.4 °F /  14.1 °C 30.07 in /  1018.2 hPa West 3.2 mph /  5.1 km/h 6.0 mph /  9.7 km/h 76 % 0.00 in /  0 mm
09:17 65.3 °F /  18.5 °C 57.2 °F /  14 °C 30.07 in /  1018.2 hPa WNW 1.8 mph /  2.9 km/h 4.6 mph /  7.4 km/h 75 % 0.00 in /  0 mm
09:22 65.5 °F /  18.6 °C 57.0 °F /  13.9 °C 30.07 in /  1018.2 hPa West 4.1 mph /  6.6 km/h 6.9 mph /  11.1 km/h 74 % 0.00 in /  0 mm
09:27 65.6 °F /  18.7 °C 57.8 °F /  14.3 °C 30.07 in /  1018.2 hPa NW 1.2 mph /  1.9 km/h 4.6 mph /  7.4 km/h 76 % 0.00 in /  0 mm
09:32 65.8 °F /  18.8 °C 57.7 °F /  14.3 °C 30.07 in /  1018.2 hPa WNW 4.4 mph /  7.1 km/h 5.8 mph /  9.3 km/h 75 % 0.00 in /  0 mm
09:38 66.1 °F /  18.9 °C 57.9 °F /  14.4 °C 30.06 in /  1017.8 hPa WNW 1.9 mph /  3.1 km/h 5.8 mph /  9.3 km/h 75 % 0.00 in /  0 mm
09:43 66.4 °F /  19.1 °C 57.9 °F /  14.4 °C 30.07 in /  1018.2 hPa WNW 1.3 mph /  2.1 km/h 4.6 mph /  7.4 km/h 74 % 0.00 in /  0 mm
09:48 66.8 °F /  19.3 °C 58.2 °F /  14.6 °C 30.07 in /  1018.2 hPa WNW 2.9 mph /  4.7 km/h 7.0 mph /  11.3 km/h 74 % 0.00 in /  0 mm
09:53 67.7 °F /  19.8 °C 59.1 °F /  15.1 °C 30.07 in /  1018.2 hPa NW 3.5 mph /  5.6 km/h 5.8 mph /  9.3 km/h 74 % 0.00 in /  0 mm
09:58 68.6 °F /  20.3 °C 59.6 °F /  15.3 °C 30.07 in /  1018.2 hPa NW 4.2 mph /  6.8 km/h 8.1 mph /  13 km/h 73 % 0.00 in /  0 mm
10:03 69.4 °F /  20.8 °C 58.4 °F /  14.7 °C 30.07 in /  1018.2 hPa WNW 3.5 mph /  5.6 km/h 7.0 mph /  11.3 km/h 68 % 0.00 in /  0 mm
10:04 69.7 °F /  20.9 °C 59.1 °F /  15.1 °C 30.07 in /  1018.2 hPa NW 1.9 mph /  3.1 km/h 6.9 mph /  11.1 km/h 69 % 0.00 in /  0 mm
10:09 70.7 °F /  21.5 °C 59.6 °F /  15.3 °C 30.07 in /  1018.2 hPa WSW 3.2 mph /  5.1 km/h 4.6 mph /  7.4 km/h 68 % 0.00 in /  0 mm
10:14 71.7 °F /  22.1 °C 61.0 °F /  16.1 °C 30.07 in /  1018.2 hPa SSW 2.0 mph /  3.2 km/h 3.5 mph /  5.6 km/h 69 % 0.00 in /  0 mm
10:19 72.6 °F /  22.6 °C 61.0 °F /  16.1 °C 30.07 in /  1018.2 hPa WNW 1.7 mph /  2.7 km/h 6.0 mph /  9.7 km/h 67 % 0.00 in /  0 mm
10:24 73.2 °F /  22.9 °C 59.8 °F /  15.4 °C 30.06 in /  1017.8 hPa WNW 2.4 mph /  3.9 km/h 5.0 mph /  8 km/h 63 % 0.00 in /  0 mm
10:29 73.9 °F /  23.3 °C 61.0 °F /  16.1 °C 30.06 in /  1017.8 hPa SW 0.6 mph /  1 km/h 5.8 mph /  9.3 km/h 64 % 0.00 in /  0 mm
10:34 74.7 °F /  23.7 °C 60.4 °F /  15.8 °C 30.06 in /  1017.8 hPa West 1.6 mph /  2.6 km/h 5.0 mph /  8 km/h 61 % 0.00 in /  0 mm
10:40 75.3 °F /  24.1 °C 60.5 °F /  15.8 °C 30.06 in /  1017.8 hPa WSW 2.1 mph /  3.4 km/h 3.5 mph /  5.6 km/h 60 % 0.00 in /  0 mm
10:45 75.8 °F /  24.3 °C 60.0 °F /  15.6 °C 30.06 in /  1017.8 hPa West 3.1 mph /  5 km/h 5.8 mph /  9.3 km/h 58 % 0.00 in /  0 mm
10:50 76.3 °F /  24.6 °C 58.9 °F /  14.9 °C 30.06 in /  1017.8 hPa WNW 1.1 mph /  1.8 km/h 2.3 mph /  3.7 km/h 55 % 0.00 in /  0 mm
10:55 76.9 °F /  24.9 °C 62.9 °F /  17.2 °C 30.06 in /  1017.8 hPa WSW 3.0 mph /  4.8 km/h 4.0 mph /  6.4 km/h 62 % 0.00 in /  0 mm
11:00 77.5 °F /  25.3 °C 60.1 °F /  15.6 °C 30.06 in /  1017.8 hPa WNW 2.7 mph /  4.3 km/h 5.8 mph /  9.3 km/h 55 % 0.00 in /  0 mm
11:05 77.7 °F /  25.4 °C 61.3 °F /  16.3 °C 30.06 in /  1017.8 hPa WSW 3.0 mph /  4.8 km/h 4.0 mph /  6.4 km/h 57 % 0.00 in /  0 mm
11:10 78.1 °F /  25.6 °C 60.6 °F /  15.9 °C 30.06 in /  1017.8 hPa SW 2.8 mph /  4.5 km/h 3.5 mph /  5.6 km/h 55 % 0.00 in /  0 mm
11:15 78.3 °F /  25.7 °C 60.3 °F /  15.7 °C 30.06 in /  1017.8 hPa West 3.8 mph /  6.1 km/h 6.9 mph /  11.1 km/h 54 % 0.00 in /  0 mm
11:20 78.4 °F /  25.8 °C 61.4 °F /  16.3 °C 30.06 in /  1017.8 hPa SSW 1.7 mph /  2.7 km/h 3.5 mph /  5.6 km/h 56 % 0.00 in /  0 mm
11:25 78.5 °F /  25.8 °C 58.9 °F /  14.9 °C 30.07 in /  1018.2 hPa NNW 2.8 mph /  4.5 km/h 3.5 mph /  5.6 km/h 51 % 0.00 in /  0 mm
11:30 78.7 °F /  25.9 °C 59.6 °F /  15.3 °C 30.07 in /  1018.2 hPa West 5.0 mph /  8 km/h 8.1 mph /  13 km/h 52 % 0.00 in /  0 mm
11:35 79.1 °F /  26.2 °C 60.0 °F /  15.6 °C 30.07 in /  1018.2 hPa West 2.9 mph /  4.7 km/h 5.8 mph /  9.3 km/h 52 % 0.00 in /  0 mm
11:40 79.3 °F /  26.3 °C 61.2 °F /  16.2 °C 30.07 in /  1018.2 hPa WNW 2.6 mph /  4.2 km/h 8.1 mph /  13 km/h 54 % 0.00 in /  0 mm
11:45 79.5 °F /  26.4 °C 58.1 °F /  14.5 °C 30.07 in /  1018.2 hPa SW 3.8 mph /  6.1 km/h 4.6 mph /  7.4 km/h 48 % 0.00 in /  0 mm
11:50 79.8 °F /  26.6 °C 60.1 °F /  15.6 °C 30.07 in /  1018.2 hPa WNW 1.3 mph /  2.1 km/h 3.5 mph /  5.6 km/h 51 % 0.00 in /  0 mm
11:55 79.8 °F /  26.6 °C 57.8 °F /  14.3 °C 30.07 in /  1018.2 hPa WSW 5.7 mph /  9.2 km/h 13.0 mph /  20.9 km/h 47 % 0.00 in /  0 mm
12:00 80.0 °F /  26.7 °C 58.5 °F /  14.7 °C 30.07 in /  1018.2 hPa WSW 4.4 mph /  7.1 km/h 8.1 mph /  13 km/h 48 % 0.00 in /  0 mm
12:05 80.3 °F /  26.8 °C 60.0 °F /  15.6 °C 30.07 in /  1018.2 hPa West 1.9 mph /  3.1 km/h 3.5 mph /  5.6 km/h 50 % 0.00 in /  0 mm
12:10 80.3 °F /  26.8 °C 56.4 °F /  13.6 °C 30.07 in /  1018.2 hPa West 2.0 mph /  3.2 km/h 10.4 mph /  16.7 km/h 44 % 0.00 in /  0 mm
12:15 80.3 °F /  26.8 °C 56.4 °F /  13.6 °C 30.07 in /  1018.2 hPa NW 3.5 mph /  5.6 km/h 6.0 mph /  9.7 km/h 44 % 0.00 in /  0 mm
12:20 80.3 °F /  26.8 °C 57.6 °F /  14.2 °C 30.08 in /  1018.5 hPa WNW 0.3 mph /  0.5 km/h 1.2 mph /  1.9 km/h 46 % 0.00 in /  0 mm
12:25 80.7 °F /  27.1 °C 58.6 °F /  14.8 °C 30.08 in /  1018.5 hPa NW 1.6 mph /  2.6 km/h 5.8 mph /  9.3 km/h 47 % 0.00 in /  0 mm
12:30 80.8 °F /  27.1 °C 58.7 °F /  14.8 °C 30.07 in /  1018.2 hPa SSW 3.5 mph /  5.6 km/h 11.5 mph /  18.5 km/h 47 % 0.00 in /  0 mm
12:36 80.8 °F /  27.1 °C 56.9 °F /  13.8 °C 30.07 in /  1018.2 hPa SW 3.0 mph /  4.8 km/h 8.0 mph /  12.9 km/h 44 % 0.00 in /  0 mm
12:41 81.0 °F /  27.2 °C 58.9 °F /  14.9 °C 30.07 in /  1018.2 hPa West 2.7 mph /  4.3 km/h 6.0 mph /  9.7 km/h 47 % 0.00 in /  0 mm
12:46 80.9 °F /  27.2 °C 56.3 °F /  13.5 °C 30.07 in /  1018.2 hPa WNW 2.1 mph /  3.4 km/h 4.0 mph /  6.4 km/h 43 % 0.00 in /  0 mm
12:51 81.2 °F /  27.3 °C 59.6 °F /  15.3 °C 30.07 in /  1018.2 hPa WNW 3.0 mph /  4.8 km/h 6.0 mph /  9.7 km/h 48 % 0.00 in /  0 mm
12:56 81.3 °F /  27.4 °C 56.7 °F /  13.7 °C 30.07 in /  1018.2 hPa West 3.7 mph /  6 km/h 5.8 mph /  9.3 km/h 43 % 0.00 in /  0 mm
13:01 81.2 °F /  27.3 °C 57.2 °F /  14 °C 30.07 in /  1018.2 hPa SSW 2.2 mph /  3.5 km/h 3.5 mph /  5.6 km/h 44 % 0.00 in /  0 mm
13:06 81.5 °F /  27.5 °C 58.1 °F /  14.5 °C 30.07 in /  1018.2 hPa West 3.2 mph /  5.1 km/h 5.8 mph /  9.3 km/h 45 % 0.00 in /  0 mm
13:11 81.6 °F /  27.6 °C 54.9 °F /  12.7 °C 30.07 in /  1018.2 hPa WSW 5.1 mph /  8.2 km/h 9.2 mph /  14.8 km/h 40 % 0.00 in /  0 mm
13:16 81.5 °F /  27.5 °C 55.5 °F /  13.1 °C 30.07 in /  1018.2 hPa WSW 2.1 mph /  3.4 km/h 4.6 mph /  7.4 km/h 41 % 0.00 in /  0 mm
13:21 81.7 °F /  27.6 °C 58.3 °F /  14.6 °C 30.07 in /  1018.2 hPa NW 4.7 mph /  7.6 km/h 9.2 mph /  14.8 km/h 45 % 0.00 in /  0 mm
13:26 81.8 °F /  27.7 °C 56.5 °F /  13.6 °C 30.07 in /  1018.2 hPa NW 4.0 mph /  6.4 km/h 8.1 mph /  13 km/h 42 % 0.00 in /  0 mm
13:31 81.9 °F /  27.7 °C 56.6 °F /  13.7 °C 30.07 in /  1018.2 hPa SW 4.3 mph /  6.9 km/h 5.8 mph /  9.3 km/h 42 % 0.00 in /  0 mm
13:36 82.0 °F /  27.8 °C 56.0 °F /  13.3 °C 30.07 in /  1018.2 hPa SW 7.3 mph /  11.7 km/h 10.4 mph /  16.7 km/h 41 % 0.00 in /  0 mm
13:41 82.0 °F /  27.8 °C 56.6 °F /  13.7 °C 30.07 in /  1018.2 hPa SW 5.4 mph /  8.7 km/h 9.2 mph /  14.8 km/h 42 % 0.00 in /  0 mm
13:46 81.9 °F /  27.7 °C 55.2 °F /  12.9 °C 30.08 in /  1018.5 hPa North 4.1 mph /  6.6 km/h 11.5 mph /  18.5 km/h 40 % 0.00 in /  0 mm
13:51 81.9 °F /  27.7 °C 56.6 °F /  13.7 °C 30.07 in /  1018.2 hPa SSW 3.3 mph /  5.3 km/h 5.8 mph /  9.3 km/h 42 % 0.00 in /  0 mm
13:56 81.8 °F /  27.7 °C 57.8 °F /  14.3 °C 30.07 in /  1018.2 hPa WSW 2.5 mph /  4 km/h 5.8 mph /  9.3 km/h 44 % 0.00 in /  0 mm
14:01 82.0 °F /  27.8 °C 60.4 °F /  15.8 °C 30.07 in /  1018.2 hPa SW 4.2 mph /  6.8 km/h 6.0 mph /  9.7 km/h 48 % 0.00 in /  0 mm
14:06 82.2 °F /  27.9 °C 58.1 °F /  14.5 °C 30.07 in /  1018.2 hPa North 2.8 mph /  4.5 km/h 4.6 mph /  7.4 km/h 44 % 0.00 in /  0 mm
14:11 82.3 °F /  27.9 °C 55.6 °F /  13.1 °C 30.07 in /  1018.2 hPa SW 5.6 mph /  9 km/h 10.4 mph /  16.7 km/h 40 % 0.00 in /  0 mm
14:16 82.3 °F /  27.9 °C 57.6 °F /  14.2 °C 30.06 in /  1017.8 hPa WNW 3.6 mph /  5.8 km/h 6.9 mph /  11.1 km/h 43 % 0.00 in /  0 mm
14:21 82.4 °F /  28 °C 57.0 °F /  13.9 °C 30.06 in /  1017.8 hPa West 5.3 mph /  8.5 km/h 9.2 mph /  14.8 km/h 42 % 0.00 in /  0 mm
14:26 82.5 °F /  28.1 °C 57.7 °F /  14.3 °C 30.06 in /  1017.8 hPa West 4.7 mph /  7.6 km/h 8.1 mph /  13 km/h 43 % 0.00 in /  0 mm
14:31 82.5 °F /  28.1 °C 58.4 °F /  14.7 °C 30.06 in /  1017.8 hPa West 4.2 mph /  6.8 km/h 5.8 mph /  9.3 km/h 44 % 0.00 in /  0 mm
14:36 82.6 °F /  28.1 °C 58.5 °F /  14.7 °C 30.06 in /  1017.8 hPa WNW 3.9 mph /  6.3 km/h 10.4 mph /  16.7 km/h 44 % 0.00 in /  0 mm
14:37 82.6 °F /  28.1 °C 58.5 °F /  14.7 °C 30.06 in /  1017.8 hPa WNW 3.1 mph /  5 km/h 10.4 mph /  16.7 km/h 44 % 0.00 in /  0 mm
14:42 82.8 °F /  28.2 °C 58.0 °F /  14.4 °C 30.06 in /  1017.8 hPa WSW 0.5 mph /  0.8 km/h 3.5 mph /  5.6 km/h 43 % 0.00 in /  0 mm
14:47 82.9 °F /  28.3 °C 56.8 °F /  13.8 °C 30.05 in /  1017.5 hPa NW 4.6 mph /  7.4 km/h 6.9 mph /  11.1 km/h 41 % 0.00 in /  0 mm
14:52 83.1 °F /  28.4 °C 59.6 °F /  15.3 °C 30.05 in /  1017.5 hPa NNW 3.1 mph /  5 km/h 7.0 mph /  11.3 km/h 45 % 0.00 in /  0 mm
14:57 83.3 °F /  28.5 °C 57.8 °F /  14.3 °C 30.05 in /  1017.5 hPa WNW 5.1 mph /  8.2 km/h 10.4 mph /  16.7 km/h 42 % 0.00 in /  0 mm
15:02 83.5 °F /  28.6 °C 56.6 °F /  13.7 °C 30.05 in /  1017.5 hPa NW 2.8 mph /  4.5 km/h 5.8 mph /  9.3 km/h 40 % 0.00 in /  0 mm
15:07 83.7 °F /  28.7 °C 59.5 °F /  15.3 °C 30.05 in /  1017.5 hPa SW 0.8 mph /  1.3 km/h 2.3 mph /  3.7 km/h 44 % 0.00 in /  0 mm
15:12 83.9 °F /  28.8 °C 59.0 °F /  15 °C 30.05 in /  1017.5 hPa WNW 1.8 mph /  2.9 km/h 5.8 mph /  9.3 km/h 43 % 0.00 in /  0 mm
15:17 84.1 °F /  28.9 °C 58.5 °F /  14.7 °C 30.05 in /  1017.5 hPa SW 3.5 mph /  5.6 km/h 10.0 mph /  16.1 km/h 42 % 0.00 in /  0 mm
15:22 84.2 °F /  29 °C 57.9 °F /  14.4 °C 30.05 in /  1017.5 hPa SW 3.1 mph /  5 km/h 5.0 mph /  8 km/h 41 % 0.00 in /  0 mm
15:27 84.2 °F /  29 °C 57.3 °F /  14.1 °C 30.05 in /  1017.5 hPa West 0.1 mph /  0.2 km/h 1.2 mph /  1.9 km/h 40 % 0.00 in /  0 mm
15:32 84.3 °F /  29.1 °C 55.9 °F /  13.3 °C 30.04 in /  1017.2 hPa South 3.5 mph /  5.6 km/h 8.1 mph /  13 km/h 38 % 0.00 in /  0 mm
15:37 84.2 °F /  29 °C 57.3 °F /  14.1 °C 30.04 in /  1017.2 hPa West 3.6 mph /  5.8 km/h 5.0 mph /  8 km/h 40 % 0.00 in /  0 mm
15:42 84.0 °F /  28.9 °C 57.1 °F /  13.9 °C 30.04 in /  1017.2 hPa SSW 2.8 mph /  4.5 km/h 5.0 mph /  8 km/h 40 % 0.00 in /  0 mm
15:47 84.0 °F /  28.9 °C 57.8 °F /  14.3 °C 30.04 in /  1017.2 hPa SSW 2.9 mph /  4.7 km/h 4.0 mph /  6.4 km/h 41 % 0.00 in /  0 mm
15:52 84.0 °F /  28.9 °C 55.7 °F /  13.2 °C 30.04 in /  1017.2 hPa WSW 3.2 mph /  5.1 km/h 5.8 mph /  9.3 km/h 38 % 0.00 in /  0 mm
15:57 83.9 °F /  28.8 °C 55.6 °F /  13.1 °C 30.04 in /  1017.2 hPa SSW 2.0 mph /  3.2 km/h 3.5 mph /  5.6 km/h 38 % 0.00 in /  0 mm
16:02 83.8 °F /  28.8 °C 57.6 °F /  14.2 °C 30.04 in /  1017.2 hPa WNW 2.2 mph /  3.5 km/h 4.0 mph /  6.4 km/h 41 % 0.00 in /  0 mm
16:07 83.7 °F /  28.7 °C 59.5 °F /  15.3 °C 30.04 in /  1017.2 hPa WSW 0.5 mph /  0.8 km/h 5.8 mph /  9.3 km/h 44 % 0.00 in /  0 mm
16:12 83.6 °F /  28.7 °C 58.1 °F /  14.5 °C 30.04 in /  1017.2 hPa WSW 3.9 mph /  6.3 km/h 4.0 mph /  6.4 km/h 42 % 0.00 in /  0 mm
16:17 83.6 °F /  28.7 °C 55.3 °F /  12.9 °C 30.04 in /  1017.2 hPa SSW 3.2 mph /  5.1 km/h 5.8 mph /  9.3 km/h 38 % 0.00 in /  0 mm
16:20 83.6 °F /  28.7 °C 56.0 °F /  13.3 °C 30.04 in /  1017.2 hPa SSW 4.5 mph /  7.2 km/h 6.0 mph /  9.7 km/h 39 % 0.00 in /  0 mm
16:25 83.4 °F /  28.6 °C 55.1 °F /  12.8 °C 30.03 in /  1016.8 hPa SW 5.3 mph /  8.5 km/h 8.1 mph /  13 km/h 38 % 0.00 in /  0 mm
16:30 83.4 °F /  28.6 °C 55.1 °F /  12.8 °C 30.03 in /  1016.8 hPa West 5.1 mph /  8.2 km/h 7.0 mph /  11.3 km/h 38 % 0.00 in /  0 mm
16:36 83.3 °F /  28.5 °C 55.0 °F /  12.8 °C 30.03 in /  1016.8 hPa SW 5.0 mph /  8 km/h 9.0 mph /  14.5 km/h 38 % 0.00 in /  0 mm
16:41 83.3 °F /  28.5 °C 54.3 °F /  12.4 °C 30.03 in /  1016.8 hPa SW 3.0 mph /  4.8 km/h 6.0 mph /  9.7 km/h 37 % 0.00 in /  0 mm
16:46 83.4 °F /  28.6 °C 55.1 °F /  12.8 °C 30.03 in /  1016.8 hPa WSW 2.0 mph /  3.2 km/h 6.0 mph /  9.7 km/h 38 % 0.00 in /  0 mm
16:51 83.3 °F /  28.5 °C 55.1 °F /  12.8 °C 30.03 in /  1016.8 hPa SW 2.0 mph /  3.2 km/h 5.0 mph /  8 km/h 38 % 0.00 in /  0 mm
16:56 83.3 °F /  28.5 °C 55.0 °F /  12.8 °C 30.03 in /  1016.8 hPa WSW 3.0 mph /  4.8 km/h 7.0 mph /  11.3 km/h 38 % 0.00 in /  0 mm
17:01 83.4 °F /  28.6 °C 55.1 °F /  12.8 °C 30.03 in /  1016.8 hPa SW 4.9 mph /  7.9 km/h 6.9 mph /  11.1 km/h 38 % 0.00 in /  0 mm
17:06 83.2 °F /  28.4 °C 54.2 °F /  12.3 °C 30.03 in /  1016.8 hPa WSW 3.8 mph /  6.1 km/h 6.9 mph /  11.1 km/h 37 % 0.00 in /  0 mm
17:11 83.0 °F /  28.3 °C 54.8 °F /  12.7 °C 30.03 in /  1016.8 hPa WSW 3.7 mph /  6 km/h 4.6 mph /  7.4 km/h 38 % 0.00 in /  0 mm
17:16 82.8 °F /  28.2 °C 54.6 °F /  12.6 °C 30.03 in /  1016.8 hPa West 3.5 mph /  5.6 km/h 6.0 mph /  9.7 km/h 38 % 0.00 in /  0 mm
17:21 82.6 °F /  28.1 °C 55.1 °F /  12.8 °C 30.03 in /  1016.8 hPa West 3.4 mph /  5.5 km/h 4.6 mph /  7.4 km/h 39 % 0.00 in /  0 mm
17:26 82.4 °F /  28 °C 55.0 °F /  12.8 °C 30.03 in /  1016.8 hPa Calm   1.2 mph /  1.9 km/h 39 % 0.00 in /  0 mm
17:31 82.3 °F /  27.9 °C 54.9 °F /  12.7 °C 30.03 in /  1016.8 hPa WSW 4.0 mph /  6.4 km/h 8.1 mph /  13 km/h 39 % 0.00 in /  0 mm
17:36 82.0 °F /  27.8 °C 53.9 °F /  12.2 °C 30.03 in /  1016.8 hPa SSW 2.8 mph /  4.5 km/h 4.6 mph /  7.4 km/h 38 % 0.00 in /  0 mm
17:41 81.7 °F /  27.6 °C 53.6 °F /  12 °C 30.03 in /  1016.8 hPa NW 2.6 mph /  4.2 km/h 4.0 mph /  6.4 km/h 38 % 0.00 in /  0 mm
17:46 81.5 °F /  27.5 °C 54.2 °F /  12.3 °C 30.03 in /  1016.8 hPa West 0.2 mph /  0.3 km/h 2.3 mph /  3.7 km/h 39 % 0.00 in /  0 mm
17:51 81.2 °F /  27.3 °C 53.9 °F /  12.2 °C 30.03 in /  1016.8 hPa WSW 2.9 mph /  4.7 km/h 4.6 mph /  7.4 km/h 39 % 0.00 in /  0 mm
17:53 81.1 °F /  27.3 °C 55.2 °F /  12.9 °C 30.03 in /  1016.8 hPa Calm   1.2 mph /  1.9 km/h 41 % 0.00 in /  0 mm
17:58 80.8 °F /  27.1 °C 54.9 °F /  12.7 °C 30.04 in /  1017.2 hPa WSW 4.8 mph /  7.7 km/h 8.1 mph /  13 km/h 41 % 0.00 in /  0 mm
18:03 80.5 °F /  26.9 °C 54.6 °F /  12.6 °C 30.03 in /  1016.8 hPa WSW 0.7 mph /  1.1 km/h 2.3 mph /  3.7 km/h 41 % 0.00 in /  0 mm
18:08 80.3 °F /  26.8 °C 54.5 °F /  12.5 °C 30.03 in /  1016.8 hPa WSW 0.5 mph /  0.8 km/h 5.8 mph /  9.3 km/h 41 % 0.00 in /  0 mm
18:13 80.1 °F /  26.7 °C 54.9 °F /  12.7 °C 30.03 in /  1016.8 hPa WNW 2.0 mph /  3.2 km/h 4.6 mph /  7.4 km/h 42 % 0.00 in /  0 mm
18:18 79.9 °F /  26.6 °C 52.7 °F /  11.5 °C 30.03 in /  1016.8 hPa SW 2.5 mph /  4 km/h 3.5 mph /  5.6 km/h 39 % 0.00 in /  0 mm
18:23 79.7 °F /  26.5 °C 54.6 °F /  12.6 °C 30.03 in /  1016.8 hPa WSW 2.1 mph /  3.4 km/h 3.5 mph /  5.6 km/h 42 % 0.00 in /  0 mm
18:34 79.4 °F /  26.3 °C 53.6 °F /  12 °C 30.03 in /  1016.8 hPa WSW 2.2 mph /  3.5 km/h 3.5 mph /  5.6 km/h 41 % 0.00 in /  0 mm
18:39 79.3 °F /  26.3 °C 53.6 °F /  12 °C 30.03 in /  1016.8 hPa SW 2.5 mph /  4 km/h 3.5 mph /  5.6 km/h 41 % 0.00 in /  0 mm
18:44 79.1 °F /  26.2 °C 54.0 °F /  12.2 °C 30.03 in /  1016.8 hPa SW 1.3 mph /  2.1 km/h 2.3 mph /  3.7 km/h 42 % 0.00 in /  0 mm
18:49 78.9 °F /  26.1 °C 53.9 °F /  12.2 °C 30.03 in /  1016.8 hPa West 0.7 mph /  1.1 km/h 3.5 mph /  5.6 km/h 42 % 0.00 in /  0 mm
18:54 78.8 °F /  26 °C 54.4 °F /  12.4 °C 30.04 in /  1017.2 hPa West 0.2 mph /  0.3 km/h 2.3 mph /  3.7 km/h 43 % 0.00 in /  0 mm
18:59 78.7 °F /  25.9 °C 54.3 °F /  12.4 °C 30.03 in /  1016.8 hPa Calm   2.3 mph /  3.7 km/h 43 % 0.00 in /  0 mm
19:04 78.5 °F /  25.8 °C 54.1 °F /  12.3 °C 30.04 in /  1017.2 hPa Calm     43 % 0.00 in /  0 mm
19:09 78.2 °F /  25.7 °C 57.5 °F /  14.2 °C 30.04 in /  1017.2 hPa SSW 0.2 mph /  0.3 km/h 3.5 mph /  5.6 km/h 49 % 0.00 in /  0 mm
19:14 77.8 °F /  25.4 °C 58.8 °F /  14.9 °C 30.04 in /  1017.2 hPa ENE 1.4 mph /  2.3 km/h 3.5 mph /  5.6 km/h 52 % 0.00 in /  0 mm
19:20 77.2 °F /  25.1 °C 58.2 °F /  14.6 °C 30.04 in /  1017.2 hPa SSE 0.2 mph /  0.3 km/h 3.5 mph /  5.6 km/h 52 % 0.00 in /  0 mm
19:25 76.6 °F /  24.8 °C 58.7 °F /  14.8 °C 30.04 in /  1017.2 hPa SSE 0.5 mph /  0.8 km/h 1.2 mph /  1.9 km/h 54 % 0.00 in /  0 mm
19:30 76.3 °F /  24.6 °C 58.9 °F /  14.9 °C 30.04 in /  1017.2 hPa West 1.8 mph /  2.9 km/h 4.6 mph /  7.4 km/h 55 % 0.00 in /  0 mm
19:31 76.3 °F /  24.6 °C 58.9 °F /  14.9 °C 30.04 in /  1017.2 hPa South 1.0 mph /  1.6 km/h 5.0 mph /  8 km/h 55 % 0.00 in /  0 mm
19:36 75.9 °F /  24.4 °C 58.6 °F /  14.8 °C 30.04 in /  1017.2 hPa South 1.0 mph /  1.6 km/h 5.0 mph /  8 km/h 55 % 0.00 in /  0 mm
19:41 75.5 °F /  24.2 °C 58.2 °F /  14.6 °C 30.04 in /  1017.2 hPa South 2.0 mph /  3.2 km/h 9.0 mph /  14.5 km/h 55 % 0.00 in /  0 mm
19:46 75.1 °F /  23.9 °C 58.3 °F /  14.6 °C 30.04 in /  1017.2 hPa SSW 1.0 mph /  1.6 km/h 3.0 mph /  4.8 km/h 56 % 0.00 in /  0 mm
19:50 74.7 °F /  23.7 °C 58.0 °F /  14.4 °C 30.04 in /  1017.2 hPa SE 2.3 mph /  3.7 km/h 4.0 mph /  6.4 km/h 56 % 0.00 in /  0 mm
19:55 74.2 °F /  23.4 °C 58.0 °F /  14.4 °C 30.04 in /  1017.2 hPa SSW 0.5 mph /  0.8 km/h 1.2 mph /  1.9 km/h 57 % 0.00 in /  0 mm
20:00 73.8 °F /  23.2 °C 58.1 °F /  14.5 °C 30.04 in /  1017.2 hPa SE 1.4 mph /  2.3 km/h 3.5 mph /  5.6 km/h 58 % 0.00 in /  0 mm
20:05 73.4 °F /  23 °C 57.7 °F /  14.3 °C 30.04 in /  1017.2 hPa South 0.6 mph /  1 km/h 3.5 mph /  5.6 km/h 58 % 0.00 in /  0 mm
20:10 73.0 °F /  22.8 °C 57.8 °F /  14.3 °C 30.04 in /  1017.2 hPa SSE 0.7 mph /  1.1 km/h 2.0 mph /  3.2 km/h 59 % 0.00 in /  0 mm
20:15 72.6 °F /  22.6 °C 57.9 °F /  14.4 °C 30.04 in /  1017.2 hPa SSW 2.5 mph /  4 km/h 3.5 mph /  5.6 km/h 60 % 0.00 in /  0 mm
20:20 72.3 °F /  22.4 °C 57.6 °F /  14.2 °C 30.04 in /  1017.2 hPa SSW 0.6 mph /  1 km/h 3.5 mph /  5.6 km/h 60 % 0.00 in /  0 mm
20:25 72.0 °F /  22.2 °C 57.4 °F /  14.1 °C 30.04 in /  1017.2 hPa South 1.2 mph /  1.9 km/h 2.3 mph /  3.7 km/h 60 % 0.00 in /  0 mm
20:26 72.0 °F /  22.2 °C 57.4 °F /  14.1 °C 30.04 in /  1017.2 hPa South 1.8 mph /  2.9 km/h 3.5 mph /  5.6 km/h 60 % 0.00 in /  0 mm
20:31 71.7 °F /  22.1 °C 57.5 °F /  14.2 °C 30.04 in /  1017.2 hPa SSW 1.8 mph /  2.9 km/h 3.5 mph /  5.6 km/h 61 % 0.00 in /  0 mm
20:36 71.3 °F /  21.8 °C 57.6 °F /  14.2 °C 30.05 in /  1017.5 hPa South 0.3 mph /  0.5 km/h 2.3 mph /  3.7 km/h 62 % 0.00 in /  0 mm
20:41 71.1 °F /  21.7 °C 57.4 °F /  14.1 °C 30.05 in /  1017.5 hPa SSW 0.4 mph /  0.6 km/h 2.3 mph /  3.7 km/h 62 % 0.00 in /  0 mm
20:46 70.8 °F /  21.6 °C 57.6 °F /  14.2 °C 30.05 in /  1017.5 hPa SSW 1.2 mph /  1.9 km/h 3.5 mph /  5.6 km/h 63 % 0.00 in /  0 mm
20:51 70.5 °F /  21.4 °C 57.7 °F /  14.3 °C 30.04 in /  1017.2 hPa SW 0.9 mph /  1.4 km/h 3.5 mph /  5.6 km/h 64 % 0.00 in /  0 mm
20:56 70.3 °F /  21.3 °C 57.5 °F /  14.2 °C 30.05 in /  1017.5 hPa SW 1.4 mph /  2.3 km/h 3.5 mph /  5.6 km/h 64 % 0.00 in /  0 mm
21:01 70.1 °F /  21.2 °C 57.4 °F /  14.1 °C 30.05 in /  1017.5 hPa SW 0.4 mph /  0.6 km/h 1.2 mph /  1.9 km/h 64 % 0.00 in /  0 mm
21:06 69.9 °F /  21.1 °C 57.6 °F /  14.2 °C 30.05 in /  1017.5 hPa SW 0.7 mph /  1.1 km/h 2.3 mph /  3.7 km/h 65 % 0.00 in /  0 mm
21:11 69.6 °F /  20.9 °C 57.3 °F /  14.1 °C 30.05 in /  1017.5 hPa SW 0.1 mph /  0.2 km/h 1.2 mph /  1.9 km/h 65 % 0.00 in /  0 mm
21:16 69.4 °F /  20.8 °C 57.5 °F /  14.2 °C 30.06 in /  1017.8 hPa WSW 0.6 mph /  1 km/h 1.2 mph /  1.9 km/h 66 % 0.00 in /  0 mm
21:21 69.3 °F /  20.7 °C 57.5 °F /  14.2 °C 30.05 in /  1017.5 hPa SW 1.0 mph /  1.6 km/h 2.3 mph /  3.7 km/h 66 % 0.00 in /  0 mm
21:23 69.2 °F /  20.7 °C 57.4 °F /  14.1 °C 30.05 in /  1017.5 hPa SW 0.4 mph /  0.6 km/h 1.2 mph /  1.9 km/h 66 % 0.00 in /  0 mm
21:28 69.1 °F /  20.6 °C 57.7 °F /  14.3 °C 30.05 in /  1017.5 hPa WSW 1.1 mph /  1.8 km/h 3.5 mph /  5.6 km/h 67 % 0.00 in /  0 mm
21:33 68.9 °F /  20.5 °C 57.5 °F /  14.2 °C 30.05 in /  1017.5 hPa SW 1.6 mph /  2.6 km/h 3.5 mph /  5.6 km/h 67 % 0.00 in /  0 mm
21:38 68.8 °F /  20.4 °C 57.4 °F /  14.1 °C 30.05 in /  1017.5 hPa SSW 0.4 mph /  0.6 km/h 2.3 mph /  3.7 km/h 67 % 0.00 in /  0 mm
21:43 68.6 °F /  20.3 °C 57.2 °F /  14 °C 30.06 in /  1017.8 hPa SSW 0.3 mph /  0.5 km/h 1.2 mph /  1.9 km/h 67 % 0.00 in /  0 mm
21:48 68.5 °F /  20.3 °C 57.5 °F /  14.2 °C 30.06 in /  1017.8 hPa SSW 0.2 mph /  0.3 km/h 2.3 mph /  3.7 km/h 68 % 0.00 in /  0 mm
21:53 68.4 °F /  20.2 °C 57.4 °F /  14.1 °C 30.06 in /  1017.8 hPa SSW 0.3 mph /  0.5 km/h 1.2 mph /  1.9 km/h 68 % 0.00 in /  0 mm
21:58 68.3 °F /  20.2 °C 57.3 °F /  14.1 °C 30.06 in /  1017.8 hPa SSE 0.2 mph /  0.3 km/h 3.5 mph /  5.6 km/h 68 % 0.00 in /  0 mm
22:03 68.2 °F /  20.1 °C 57.2 °F /  14 °C 30.06 in /  1017.8 hPa Calm   1.2 mph /  1.9 km/h 68 % 0.00 in /  0 mm
22:08 68.1 °F /  20.1 °C 57.1 °F /  13.9 °C 30.07 in /  1018.2 hPa SSE 0.3 mph /  0.5 km/h 1.2 mph /  1.9 km/h 68 % 0.00 in /  0 mm
22:13 68.1 °F /  20.1 °C 57.5 °F /  14.2 °C 30.07 in /  1018.2 hPa South 0.2 mph /  0.3 km/h 1.2 mph /  1.9 km/h 69 % 0.00 in /  0 mm
22:19 68.1 °F /  20.1 °C 57.5 °F /  14.2 °C 30.06 in /  1017.8 hPa South 0.2 mph /  0.3 km/h 2.3 mph /  3.7 km/h 69 % 0.00 in /  0 mm
22:24 68.0 °F /  20 °C 57.4 °F /  14.1 °C 30.06 in /  1017.8 hPa Calm   1.2 mph /  1.9 km/h 69 % 0.00 in /  0 mm
22:29 67.9 °F /  19.9 °C 57.4 °F /  14.1 °C 30.07 in /  1018.2 hPa Calm   1.2 mph /  1.9 km/h 69 % 0.00 in /  0 mm
22:34 67.9 °F /  19.9 °C 57.4 °F /  14.1 °C 30.07 in /  1018.2 hPa Calm   1.2 mph /  1.9 km/h 69 % 0.00 in /  0 mm
22:39 67.8 °F /  19.9 °C 57.3 °F /  14.1 °C 30.07 in /  1018.2 hPa SSW 0.1 mph /  0.2 km/h 2.3 mph /  3.7 km/h 69 % 0.00 in /  0 mm
22:44 67.8 °F /  19.9 °C 57.7 °F /  14.3 °C 30.07 in /  1018.2 hPa Calm   1.2 mph /  1.9 km/h 70 % 0.00 in /  0 mm
22:49 67.7 °F /  19.8 °C 57.6 °F /  14.2 °C 30.07 in /  1018.2 hPa WSW 0.5 mph /  0.8 km/h 2.3 mph /  3.7 km/h 70 % 0.00 in /  0 mm
22:54 67.7 °F /  19.8 °C 57.6 °F /  14.2 °C 30.07 in /  1018.2 hPa WSW 0.6 mph /  1 km/h 2.3 mph /  3.7 km/h 70 % 0.00 in /  0 mm
22:59 67.6 °F /  19.8 °C 57.5 °F /  14.2 °C 30.07 in /  1018.2 hPa Calm   1.2 mph /  1.9 km/h 70 % 0.00 in /  0 mm
23:04 67.6 °F /  19.8 °C 57.5 °F /  14.2 °C 30.07 in /  1018.2 hPa SSW 0.5 mph /  0.8 km/h 1.2 mph /  1.9 km/h 70 % 0.00 in /  0 mm
23:09 67.6 °F /  19.8 °C 57.5 °F /  14.2 °C 30.07 in /  1018.2 hPa SW 1.1 mph /  1.8 km/h 3.5 mph /  5.6 km/h 70 % 0.00 in /  0 mm
23:14 67.6 °F /  19.8 °C 57.5 °F /  14.2 °C 30.08 in /  1018.5 hPa SW 0.1 mph /  0.2 km/h 1.2 mph /  1.9 km/h 70 % 0.00 in /  0 mm
23:19 67.6 °F /  19.8 °C 57.9 °F /  14.4 °C 30.08 in /  1018.5 hPa SW 0.4 mph /  0.6 km/h 1.2 mph /  1.9 km/h 71 % 0.00 in /  0 mm
23:24 67.6 °F /  19.8 °C 57.9 °F /  14.4 °C 30.07 in /  1018.2 hPa SW 0.3 mph /  0.5 km/h 1.2 mph /  1.9 km/h 71 % 0.00 in /  0 mm
23:29 67.6 °F /  19.8 °C 57.9 °F /  14.4 °C 30.08 in /  1018.5 hPa SW 0.1 mph /  0.2 km/h 1.2 mph /  1.9 km/h 71 % 0.00 in /  0 mm
23:34 67.5 °F /  19.7 °C 57.8 °F /  14.3 °C 30.07 in /  1018.2 hPa Calm   1.2 mph /  1.9 km/h 71 % 0.00 in /  0 mm
23:39 67.5 °F /  19.7 °C 57.8 °F /  14.3 °C 30.08 in /  1018.5 hPa SSW 0.9 mph /  1.4 km/h 2.3 mph /  3.7 km/h 71 % 0.00 in /  0 mm
23:44 67.5 °F /  19.7 °C 57.8 °F /  14.3 °C 30.07 in /  1018.2 hPa Calm   2.3 mph /  3.7 km/h 71 % 0.00 in /  0 mm
23:49 67.4 °F /  19.7 °C 57.7 °F /  14.3 °C 30.08 in /  1018.5 hPa SW 0.2 mph /  0.3 km/h 1.2 mph /  1.9 km/h 71 % 0.00 in /  0 mm
23:54 67.4 °F /  19.7 °C 57.7 °F /  14.3 °C 30.08 in /  1018.5 hPa SW 0.1 mph /  0.2 km/h 1.2 mph /  1.9 km/h 71 % 0.00 in /  0 mm
23:55 67.4 °F /  19.7 °C 57.7 °F /  14.3 °C 30.08 in /  1018.5 hPa Calm   1.2 mph /  1.9 km/h 71 % 0.00 in /  0 mm
Crab Meadow Weather
Compliments of Weather Underground - 3 mb

Script developed by  Jim McMurry - jmcmurry@mwt.net Adapted for the template by  Wim van der Kuil - Leuven-Template.eu

Weather Terms: Tornado - A violently rotating column of air, from a thunderstorm, in contact with the ground.